Terminal Aerodrome Forecast
Issued by NWS

Home | Current Version | Previous Version | Text Only | Print | Product List | Glossary On
Versions: 1 2 3 4 5 6 7 8 9 10 11 12 13 14 15 16 17 18
000
FTUS44 KHGX 270806 AAA
TAFCXO
TAF AMD
KCXO 270806Z 2708/2806 12004KT P6SM MIFG BKN015 OVC020
     FM271500 17009KT P6SM BKN025
      TEMPO 2720/2724 BKN035
     FM280300 18007KT P6SM BKN025=

USA.gov is the U.S. government's official web portal to all federal, state and local government web resources and services.